sensor_id;sensor_type;location;lat;lon;timestamp;temperature;humidity
69162;DHT22;56269;51.738;21.652;2023-12-20T00:01:17;5.25;99.99
69162;DHT22;56269;51.738;21.652;2023-12-20T00:03:44;5.25;99.99
69162;DHT22;56269;51.738;21.652;2023-12-20T00:06:10;5.20;99.99
69162;DHT22;56269;51.738;21.652;2023-12-20T00:08:37;5.20;99.99
69162;DHT22;56269;51.738;21.652;2023-12-20T00:11:03;5.18;99.99
69162;DHT22;56269;51.738;21.652;2023-12-20T00:13:29;5.17;99.99
69162;DHT22;56269;51.738;21.652;2023-12-20T00:15:55;5.18;99.99
69162;DHT22;56269;51.738;21.652;2023-12-20T00:18:22;5.17;99.99
69162;DHT22;56269;51.738;21.652;2023-12-20T00:20:47;5.14;99.99
69162;DHT22;56269;51.738;21.652;2023-12-20T00:23:14;5.13;99.99
69162;DHT22;56269;51.738;21.652;2023-12-20T00:25:40;5.08;99.99
69162;DHT22;56269;51.738;21.652;2023-12-20T00:28:06;5.08;99.99
69162;DHT22;56269;51.738;21.652;2023-12-20T00:30:32;5.10;99.99
69162;DHT22;56269;51.738;21.652;2023-12-20T00:32:59;5.01;99.99
69162;DHT22;56269;51.738;21.652;2023-12-20T00:35:26;5.06;99.99
69162;DHT22;56269;51.738;21.652;2023-12-20T00:37:53;5.04;99.99
69162;DHT22;56269;51.738;21.652;2023-12-20T00:40:19;5.06;99.99
69162;DHT22;56269;51.738;21.652;2023-12-20T00:42:46;5.03;99.99
69162;DHT22;56269;51.738;21.652;2023-12-20T00:45:12;5.01;99.99
69162;DHT22;56269;51.738;21.652;2023-12-20T00:47:40;5.03;99.99
69162;DHT22;56269;51.738;21.652;2023-12-20T00:50:07;5.00;99.99
69162;DHT22;56269;51.738;21.652;2023-12-20T00:52:33;4.98;99.99
69162;DHT22;56269;51.738;21.652;2023-12-20T00:54:59;4.97;99.99
69162;DHT22;56269;51.738;21.652;2023-12-20T00:57:25;4.94;99.99
69162;DHT22;56269;51.738;21.652;2023-12-20T00:59:51;4.93;99.99
69162;DHT22;56269;51.738;21.652;2023-12-20T01:02:18;4.91;99.99
69162;DHT22;56269;51.738;21.652;2023-12-20T01:04:45;4.90;99.99
69162;DHT22;56269;51.738;21.652;2023-12-20T01:07:11;4.91;99.99
69162;DHT22;56269;51.738;21.652;2023-12-20T01:09:38;4.90;99.99
69162;DHT22;56269;51.738;21.652;2023-12-20T01:12:04;4.88;99.99
69162;DHT22;56269;51.738;21.652;2023-12-20T01:14:30;4.88;99.99
69162;DHT22;56269;51.738;21.652;2023-12-20T01:16:57;4.90;99.99
69162;DHT22;56269;51.738;21.652;2023-12-20T01:19:24;4.91;99.99
69162;DHT22;56269;51.738;21.652;2023-12-20T01:21:50;4.90;99.99
69162;DHT22;56269;51.738;21.652;2023-12-20T01:24:16;4.87;99.99
69162;DHT22;56269;51.738;21.652;2023-12-20T01:26:42;4.93;99.99
69162;DHT22;56269;51.738;21.652;2023-12-20T01:29:09;4.88;99.99
69162;DHT22;56269;51.738;21.652;2023-12-20T01:31:36;4.88;99.99
69162;DHT22;56269;51.738;21.652;2023-12-20T01:34:02;4.91;99.99
69162;DHT22;56269;51.738;21.652;2023-12-20T01:36:28;4.90;99.99
69162;DHT22;56269;51.738;21.652;2023-12-20T01:38:54;4.87;99.99
69162;DHT22;56269;51.738;21.652;2023-12-20T01:41:21;4.90;99.99
69162;DHT22;56269;51.738;21.652;2023-12-20T01:43:47;4.91;99.99
69162;DHT22;56269;51.738;21.652;2023-12-20T01:46:14;4.90;99.99
69162;DHT22;56269;51.738;21.652;2023-12-20T01:48:40;4.90;99.99
69162;DHT22;56269;51.738;21.652;2023-12-20T01:51:07;4.87;99.99
69162;DHT22;56269;51.738;21.652;2023-12-20T01:53:34;4.90;99.99
69162;DHT22;56269;51.738;21.652;2023-12-20T01:56:01;4.90;99.99
69162;DHT22;56269;51.738;21.652;2023-12-20T01:58:27;4.94;99.99
69162;DHT22;56269;51.738;21.652;2023-12-20T02:00:54;4.93;99.99
69162;DHT22;56269;51.738;21.652;2023-12-20T02:03:20;4.97;99.99
69162;DHT22;56269;51.738;21.652;2023-12-20T02:05:48;4.94;99.99
69162;DHT22;56269;51.738;21.652;2023-12-20T02:08:14;4.93;99.99
69162;DHT22;56269;51.738;21.652;2023-12-20T02:10:40;4.97;99.99
69162;DHT22;56269;51.738;21.652;2023-12-20T02:13:08;4.96;99.99
69162;DHT22;56269;51.738;21.652;2023-12-20T02:15:35;4.98;99.99
69162;DHT22;56269;51.738;21.652;2023-12-20T02:18:03;4.98;99.99
69162;DHT22;56269;51.738;21.652;2023-12-20T02:20:30;5.01;99.99
69162;DHT22;56269;51.738;21.652;2023-12-20T02:22:56;5.04;99.99
69162;DHT22;56269;51.738;21.652;2023-12-20T02:25:22;5.03;99.99
69162;DHT22;56269;51.738;21.652;2023-12-20T02:27:48;5.03;99.99
69162;DHT22;56269;51.738;21.652;2023-12-20T02:30:15;5.07;99.99
69162;DHT22;56269;51.738;21.652;2023-12-20T02:32:41;5.06;99.99
69162;DHT22;56269;51.738;21.652;2023-12-20T02:35:08;5.04;99.99
69162;DHT22;56269;51.738;21.652;2023-12-20T02:37:34;5.06;99.99
69162;DHT22;56269;51.738;21.652;2023-12-20T02:40:00;5.08;99.99
69162;DHT22;56269;51.738;21.652;2023-12-20T02:42:26;5.08;99.99
69162;DHT22;56269;51.738;21.652;2023-12-20T02:44:52;5.11;99.99
69162;DHT22;56269;51.738;21.652;2023-12-20T02:47:20;5.10;99.99
69162;DHT22;56269;51.738;21.652;2023-12-20T02:49:47;5.10;99.99
69162;DHT22;56269;51.738;21.652;2023-12-20T02:52:13;5.14;99.99
69162;DHT22;56269;51.738;21.652;2023-12-20T02:54:39;5.15;99.99
69162;DHT22;56269;51.738;21.652;2023-12-20T02:57:06;5.14;99.99
69162;DHT22;56269;51.738;21.652;2023-12-20T02:59:32;5.13;99.99
69162;DHT22;56269;51.738;21.652;2023-12-20T03:01:58;5.14;99.99
69162;DHT22;56269;51.738;21.652;2023-12-20T03:04:24;5.14;99.99
69162;DHT22;56269;51.738;21.652;2023-12-20T03:06:51;5.18;99.99
69162;DHT22;56269;51.738;21.652;2023-12-20T03:09:17;5.18;99.99
69162;DHT22;56269;51.738;21.652;2023-12-20T03:11:43;5.21;99.99
69162;DHT22;56269;51.738;21.652;2023-12-20T03:14:09;5.18;99.99
69162;DHT22;56269;51.738;21.652;2023-12-20T03:16:35;5.20;99.99
69162;DHT22;56269;51.738;21.652;2023-12-20T03:19:02;5.23;99.99
69162;DHT22;56269;51.738;21.652;2023-12-20T03:21:28;5.24;99.99
69162;DHT22;56269;51.738;21.652;2023-12-20T03:23:54;5.24;99.99
69162;DHT22;56269;51.738;21.652;2023-12-20T03:26:20;5.24;99.99
69162;DHT22;56269;51.738;21.652;2023-12-20T03:28:48;5.23;99.99
69162;DHT22;56269;51.738;21.652;2023-12-20T03:31:14;5.20;99.99
69162;DHT22;56269;51.738;21.652;2023-12-20T03:33:41;5.24;99.99
69162;DHT22;56269;51.738;21.652;2023-12-20T03:36:08;5.23;99.99
69162;DHT22;56269;51.738;21.652;2023-12-20T03:38:34;5.27;99.99
69162;DHT22;56269;51.738;21.652;2023-12-20T03:41:00;5.24;99.99
69162;DHT22;56269;51.738;21.652;2023-12-20T03:43:26;5.25;99.99
69162;DHT22;56269;51.738;21.652;2023-12-20T03:45:52;5.24;99.99
69162;DHT22;56269;51.738;21.652;2023-12-20T03:48:19;5.31;99.99
69162;DHT22;56269;51.738;21.652;2023-12-20T03:50:45;5.28;99.99
69162;DHT22;56269;51.738;21.652;2023-12-20T03:53:11;5.25;99.99
69162;DHT22;56269;51.738;21.652;2023-12-20T03:55:37;5.27;99.99
69162;DHT22;56269;51.738;21.652;2023-12-20T03:58:03;5.25;99.99
69162;DHT22;56269;51.738;21.652;2023-12-20T04:00:29;5.27;99.99
69162;DHT22;56269;51.738;21.652;2023-12-20T04:02:55;5.24;99.99
69162;DHT22;56269;51.738;21.652;2023-12-20T04:05:21;5.27;99.99
69162;DHT22;56269;51.738;21.652;2023-12-20T04:07:48;5.30;99.99
69162;DHT22;56269;51.738;21.652;2023-12-20T04:10:15;5.27;99.99
69162;DHT22;56269;51.738;21.652;2023-12-20T04:12:42;5.25;99.99
69162;DHT22;56269;51.738;21.652;2023-12-20T04:15:08;5.24;99.99
69162;DHT22;56269;51.738;21.652;2023-12-20T04:17:36;5.24;99.99
69162;DHT22;56269;51.738;21.652;2023-12-20T04:20:02;5.25;99.99
69162;DHT22;56269;51.738;21.652;2023-12-20T04:22:28;5.23;99.99
69162;DHT22;56269;51.738;21.652;2023-12-20T04:24:54;5.21;99.99
69162;DHT22;56269;51.738;21.652;2023-12-20T04:27:21;5.23;99.99
69162;DHT22;56269;51.738;21.652;2023-12-20T04:29:46;5.25;99.99
69162;DHT22;56269;51.738;21.652;2023-12-20T04:32:13;5.25;99.99
69162;DHT22;56269;51.738;21.652;2023-12-20T04:34:39;5.25;99.99
69162;DHT22;56269;51.738;21.652;2023-12-20T04:37:05;5.28;99.99
69162;DHT22;56269;51.738;21.652;2023-12-20T04:39:31;5.27;99.99
69162;DHT22;56269;51.738;21.652;2023-12-20T04:41:57;5.27;99.99
69162;DHT22;56269;51.738;21.652;2023-12-20T04:44:23;5.27;99.99
69162;DHT22;56269;51.738;21.652;2023-12-20T04:46:50;5.31;99.99
69162;DHT22;56269;51.738;21.652;2023-12-20T04:49:15;5.28;99.99
69162;DHT22;56269;51.738;21.652;2023-12-20T04:51:42;5.25;99.99
69162;DHT22;56269;51.738;21.652;2023-12-20T04:54:08;5.27;99.99
69162;DHT22;56269;51.738;21.652;2023-12-20T04:56:35;5.23;99.99
69162;DHT22;56269;51.738;21.652;2023-12-20T04:59:01;5.25;99.99
69162;DHT22;56269;51.738;21.652;2023-12-20T05:01:27;5.25;99.99
69162;DHT22;56269;51.738;21.652;2023-12-20T05:03:53;5.23;99.99
69162;DHT22;56269;51.738;21.652;2023-12-20T05:06:20;5.24;99.99
69162;DHT22;56269;51.738;21.652;2023-12-20T05:08:46;5.20;99.99
69162;DHT22;56269;51.738;21.652;2023-12-20T05:11:12;5.23;99.99
69162;DHT22;56269;51.738;21.652;2023-12-20T05:13:39;5.24;99.99
69162;DHT22;56269;51.738;21.652;2023-12-20T05:16:06;5.23;99.99
69162;DHT22;56269;51.738;21.652;2023-12-20T05:18:32;5.21;99.99
69162;DHT22;56269;51.738;21.652;2023-12-20T05:20:58;5.23;99.99
69162;DHT22;56269;51.738;21.652;2023-12-20T05:23:24;5.21;99.99
69162;DHT22;56269;51.738;21.652;2023-12-20T05:25:50;5.20;99.99
69162;DHT22;56269;51.738;21.652;2023-12-20T05:28:16;5.18;99.99
69162;DHT22;56269;51.738;21.652;2023-12-20T05:30:43;5.18;99.99
69162;DHT22;56269;51.738;21.652;2023-12-20T05:33:09;5.18;99.99
69162;DHT22;56269;51.738;21.652;2023-12-20T05:35:35;5.13;99.99
69162;DHT22;56269;51.738;21.652;2023-12-20T05:38:01;5.13;99.99
69162;DHT22;56269;51.738;21.652;2023-12-20T05:40:27;5.17;99.99
69162;DHT22;56269;51.738;21.652;2023-12-20T05:42:54;5.15;99.99
69162;DHT22;56269;51.738;21.652;2023-12-20T05:45:20;5.13;99.99
69162;DHT22;56269;51.738;21.652;2023-12-20T05:47:46;5.10;99.99
69162;DHT22;56269;51.738;21.652;2023-12-20T05:50:12;5.13;99.99
69162;DHT22;56269;51.738;21.652;2023-12-20T05:52:39;5.13;99.99
69162;DHT22;56269;51.738;21.652;2023-12-20T05:55:06;5.10;99.99
69162;DHT22;56269;51.738;21.652;2023-12-20T05:57:32;5.11;99.99
69162;DHT22;56269;51.738;21.652;2023-12-20T05:59:58;5.08;99.99
69162;DHT22;56269;51.738;21.652;2023-12-20T06:02:24;5.11;99.99
69162;DHT22;56269;51.738;21.652;2023-12-20T06:04:50;5.11;99.99
69162;DHT22;56269;51.738;21.652;2023-12-20T06:07:17;5.10;99.99
69162;DHT22;56269;51.738;21.652;2023-12-20T06:09:43;5.08;99.99
69162;DHT22;56269;51.738;21.652;2023-12-20T06:12:09;5.13;99.99
69162;DHT22;56269;51.738;21.652;2023-12-20T06:14:35;5.11;99.99
69162;DHT22;56269;51.738;21.652;2023-12-20T06:17:02;5.06;99.99
69162;DHT22;56269;51.738;21.652;2023-12-20T06:19:28;5.08;99.99
69162;DHT22;56269;51.738;21.652;2023-12-20T06:21:54;5.13;99.99
69162;DHT22;56269;51.738;21.652;2023-12-20T06:24:20;5.11;99.99
69162;DHT22;56269;51.738;21.652;2023-12-20T06:26:47;5.14;99.99
69162;DHT22;56269;51.738;21.652;2023-12-20T06:29:13;5.11;99.99
69162;DHT22;56269;51.738;21.652;2023-12-20T06:31:39;5.14;99.99
69162;DHT22;56269;51.738;21.652;2023-12-20T06:34:05;5.13;99.99
69162;DHT22;56269;51.738;21.652;2023-12-20T06:36:32;5.14;99.99
69162;DHT22;56269;51.738;21.652;2023-12-20T06:38:58;5.15;99.99
69162;DHT22;56269;51.738;21.652;2023-12-20T06:41:24;5.14;99.99
69162;DHT22;56269;51.738;21.652;2023-12-20T06:43:51;5.15;99.99
69162;DHT22;56269;51.738;21.652;2023-12-20T06:46:22;5.14;99.99
69162;DHT22;56269;51.738;21.652;2023-12-20T06:48:48;5.14;99.99
69162;DHT22;56269;51.738;21.652;2023-12-20T06:51:16;5.11;99.99
69162;DHT22;56269;51.738;21.652;2023-12-20T06:53:42;5.11;99.99
69162;DHT22;56269;51.738;21.652;2023-12-20T06:56:11;5.13;99.99
69162;DHT22;56269;51.738;21.652;2023-12-20T06:58:42;5.08;99.99
69162;DHT22;56269;51.738;21.652;2023-12-20T07:01:12;5.11;99.99
69162;DHT22;56269;51.738;21.652;2023-12-20T07:03:39;5.13;99.99
69162;DHT22;56269;51.738;21.652;2023-12-20T07:06:06;5.14;99.99
69162;DHT22;56269;51.738;21.652;2023-12-20T07:08:34;5.10;99.99
69162;DHT22;56269;51.738;21.652;2023-12-20T07:11:00;5.10;99.99
69162;DHT22;56269;51.738;21.652;2023-12-20T07:13:26;5.10;99.99
69162;DHT22;56269;51.738;21.652;2023-12-20T07:15:52;5.10;99.99
69162;DHT22;56269;51.738;21.652;2023-12-20T07:18:18;5.11;99.99
69162;DHT22;56269;51.738;21.652;2023-12-20T07:20:45;5.10;99.99
69162;DHT22;56269;51.738;21.652;2023-12-20T07:23:13;5.11;99.99
69162;DHT22;56269;51.738;21.652;2023-12-20T07:25:39;5.14;99.99
69162;DHT22;56269;51.738;21.652;2023-12-20T07:28:05;5.13;99.99
69162;DHT22;56269;51.738;21.652;2023-12-20T07:30:32;5.10;99.99
69162;DHT22;56269;51.738;21.652;2023-12-20T07:32:58;5.17;99.99
69162;DHT22;56269;51.738;21.652;2023-12-20T07:35:24;5.14;99.99
69162;DHT22;56269;51.738;21.652;2023-12-20T07:37:51;5.11;99.99
69162;DHT22;56269;51.738;21.652;2023-12-20T07:40:17;5.11;99.99
69162;DHT22;56269;51.738;21.652;2023-12-20T07:42:43;5.15;99.99
69162;DHT22;56269;51.738;21.652;2023-12-20T07:45:09;5.13;99.99
69162;DHT22;56269;51.738;21.652;2023-12-20T07:47:36;5.15;99.99
69162;DHT22;56269;51.738;21.652;2023-12-20T07:50:02;5.18;99.99
69162;DHT22;56269;51.738;21.652;2023-12-20T07:52:29;5.20;99.99
69162;DHT22;56269;51.738;21.652;2023-12-20T07:54:56;5.17;99.99
69162;DHT22;56269;51.738;21.652;2023-12-20T07:57:23;5.17;99.99
69162;DHT22;56269;51.738;21.652;2023-12-20T07:59:50;5.14;99.99
69162;DHT22;56269;51.738;21.652;2023-12-20T08:02:17;5.17;99.99
69162;DHT22;56269;51.738;21.652;2023-12-20T08:04:43;5.15;99.99
69162;DHT22;56269;51.738;21.652;2023-12-20T08:07:09;5.17;99.99
69162;DHT22;56269;51.738;21.652;2023-12-20T08:09:35;5.15;99.99
69162;DHT22;56269;51.738;21.652;2023-12-20T08:12:03;5.17;99.99
69162;DHT22;56269;51.738;21.652;2023-12-20T08:14:29;5.18;99.99
69162;DHT22;56269;51.738;21.652;2023-12-20T08:16:55;5.17;99.99
69162;DHT22;56269;51.738;21.652;2023-12-20T08:19:21;5.17;99.99
69162;DHT22;56269;51.738;21.652;2023-12-20T08:21:48;5.13;99.99
69162;DHT22;56269;51.738;21.652;2023-12-20T08:24:14;5.15;99.99
69162;DHT22;56269;51.738;21.652;2023-12-20T08:26:40;5.17;99.99
69162;DHT22;56269;51.738;21.652;2023-12-20T08:29:06;5.15;99.99
69162;DHT22;56269;51.738;21.652;2023-12-20T08:31:32;5.20;99.99
69162;DHT22;56269;51.738;21.652;2023-12-20T08:33:58;5.17;99.99
69162;DHT22;56269;51.738;21.652;2023-12-20T08:36:24;5.18;99.99
69162;DHT22;56269;51.738;21.652;2023-12-20T08:38:51;5.21;99.99
69162;DHT22;56269;51.738;21.652;2023-12-20T08:41:17;5.20;99.99
69162;DHT22;56269;51.738;21.652;2023-12-20T08:43:43;5.18;99.99
69162;DHT22;56269;51.738;21.652;2023-12-20T08:46:10;5.17;99.99
69162;DHT22;56269;51.738;21.652;2023-12-20T08:48:36;5.14;99.99
69162;DHT22;56269;51.738;21.652;2023-12-20T08:51:03;5.08;99.99
69162;DHT22;56269;51.738;21.652;2023-12-20T08:53:30;5.11;99.99
69162;DHT22;56269;51.738;21.652;2023-12-20T08:55:56;5.11;99.99
69162;DHT22;56269;51.738;21.652;2023-12-20T08:58:27;5.07;99.99
69162;DHT22;56269;51.738;21.652;2023-12-20T09:00:53;5.08;99.99
69162;DHT22;56269;51.738;21.652;2023-12-20T09:03:19;5.07;99.99
69162;DHT22;56269;51.738;21.652;2023-12-20T09:05:46;5.08;99.99
69162;DHT22;56269;51.738;21.652;2023-12-20T09:08:12;5.11;99.99
69162;DHT22;56269;51.738;21.652;2023-12-20T09:10:38;5.11;99.99
69162;DHT22;56269;51.738;21.652;2023-12-20T09:13:04;5.07;99.99
69162;DHT22;56269;51.738;21.652;2023-12-20T09:15:30;5.08;99.99
69162;DHT22;56269;51.738;21.652;2023-12-20T09:17:57;5.07;99.99
69162;DHT22;56269;51.738;21.652;2023-12-20T09:20:23;5.08;99.99
69162;DHT22;56269;51.738;21.652;2023-12-20T09:22:49;5.04;99.99
69162;DHT22;56269;51.738;21.652;2023-12-20T09:25:16;5.07;99.99
69162;DHT22;56269;51.738;21.652;2023-12-20T09:27:43;5.07;99.99
69162;DHT22;56269;51.738;21.652;2023-12-20T09:30:10;5.03;99.99
69162;DHT22;56269;51.738;21.652;2023-12-20T09:32:35;5.03;99.99
69162;DHT22;56269;51.738;21.652;2023-12-20T09:35:02;5.06;99.99
69162;DHT22;56269;51.738;21.652;2023-12-20T09:37:28;5.00;99.99
69162;DHT22;56269;51.738;21.652;2023-12-20T09:39:55;5.01;99.99
69162;DHT22;56269;51.738;21.652;2023-12-20T09:42:25;5.04;99.99
69162;DHT22;56269;51.738;21.652;2023-12-20T09:44:56;4.98;99.99
69162;DHT22;56269;51.738;21.652;2023-12-20T09:47:24;5.00;99.99
69162;DHT22;56269;51.738;21.652;2023-12-20T09:49:51;4.98;99.99
69162;DHT22;56269;51.738;21.652;2023-12-20T09:52:18;5.03;99.99
69162;DHT22;56269;51.738;21.652;2023-12-20T09:54:45;4.97;99.99
69162;DHT22;56269;51.738;21.652;2023-12-20T09:57:13;4.97;99.99
69162;DHT22;56269;51.738;21.652;2023-12-20T09:59:40;4.98;99.99
69162;DHT22;56269;51.738;21.652;2023-12-20T10:02:09;4.98;99.99
69162;DHT22;56269;51.738;21.652;2023-12-20T10:04:46;4.97;99.99
69162;DHT22;56269;51.738;21.652;2023-12-20T10:07:16;4.97;99.99
69162;DHT22;56269;51.738;21.652;2023-12-20T10:09:42;4.94;99.99
69162;DHT22;56269;51.738;21.652;2023-12-20T10:12:09;4.98;99.99
69162;DHT22;56269;51.738;21.652;2023-12-20T10:14:36;4.97;99.99
69162;DHT22;56269;51.738;21.652;2023-12-20T10:17:03;4.96;99.99
69162;DHT22;56269;51.738;21.652;2023-12-20T10:19:30;4.98;99.99
69162;DHT22;56269;51.738;21.652;2023-12-20T10:21:56;4.97;99.99
69162;DHT22;56269;51.738;21.652;2023-12-20T10:24:22;5.01;99.99
69162;DHT22;56269;51.738;21.652;2023-12-20T10:27:01;5.00;99.99
69162;DHT22;56269;51.738;21.652;2023-12-20T10:29:36;4.98;99.99
69162;DHT22;56269;51.738;21.652;2023-12-20T10:32:25;5.00;99.99
69162;DHT22;56269;51.738;21.652;2023-12-20T10:34:53;5.00;99.99
69162;DHT22;56269;51.738;21.652;2023-12-20T10:37:19;5.03;99.99
69162;DHT22;56269;51.738;21.652;2023-12-20T10:39:55;5.04;99.99
69162;DHT22;56269;51.738;21.652;2023-12-20T10:42:22;5.00;99.99
69162;DHT22;56269;51.738;21.652;2023-12-20T10:44:49;5.01;99.99
69162;DHT22;56269;51.738;21.652;2023-12-20T10:47:15;5.07;99.99
69162;DHT22;56269;51.738;21.652;2023-12-20T10:49:43;5.03;99.99
69162;DHT22;56269;51.738;21.652;2023-12-20T10:52:11;5.06;99.99
69162;DHT22;56269;51.738;21.652;2023-12-20T10:54:41;5.01;99.99
69162;DHT22;56269;51.738;21.652;2023-12-20T10:57:07;5.03;99.99
69162;DHT22;56269;51.738;21.652;2023-12-20T10:59:36;5.03;99.99
69162;DHT22;56269;51.738;21.652;2023-12-20T11:02:04;5.00;99.99
69162;DHT22;56269;51.738;21.652;2023-12-20T11:07:36;4.96;99.99
69162;DHT22;56269;51.738;21.652;2023-12-20T11:10:19;5.01;99.99
69162;DHT22;56269;51.738;21.652;2023-12-20T11:12:54;5.00;99.99
69162;DHT22;56269;51.738;21.652;2023-12-20T11:15:24;5.00;99.99
69162;DHT22;56269;51.738;21.652;2023-12-20T11:17:57;5.04;99.99
69162;DHT22;56269;51.738;21.652;2023-12-20T11:20:38;5.04;99.99
69162;DHT22;56269;51.738;21.652;2023-12-20T11:23:05;5.03;99.99
69162;DHT22;56269;51.738;21.652;2023-12-20T11:25:54;4.97;99.99
69162;DHT22;56269;51.738;21.652;2023-12-20T11:28:25;5.00;99.99
69162;DHT22;56269;51.738;21.652;2023-12-20T11:30:53;4.97;99.99
69162;DHT22;56269;51.738;21.652;2023-12-20T11:33:24;4.97;99.99
69162;DHT22;56269;51.738;21.652;2023-12-20T11:35:51;4.93;99.99
69162;DHT22;56269;51.738;21.652;2023-12-20T11:38:20;4.97;99.99
69162;DHT22;56269;51.738;21.652;2023-12-20T11:40:49;4.96;99.99
69162;DHT22;56269;51.738;21.652;2023-12-20T11:43:35;4.90;99.99
69162;DHT22;56269;51.738;21.652;2023-12-20T11:46:06;4.91;99.99
69162;DHT22;56269;51.738;21.652;2023-12-20T11:48:35;4.91;99.99
69162;DHT22;56269;51.738;21.652;2023-12-20T11:51:01;4.90;99.99
69162;DHT22;56269;51.738;21.652;2023-12-20T11:53:29;4.90;99.99
69162;DHT22;56269;51.738;21.652;2023-12-20T11:55:58;4.91;99.99
69162;DHT22;56269;51.738;21.652;2023-12-20T11:58:25;4.91;99.99
69162;DHT22;56269;51.738;21.652;2023-12-20T12:00:51;4.87;99.99
69162;DHT22;56269;51.738;21.652;2023-12-20T12:03:17;4.87;99.99
69162;DHT22;56269;51.738;21.652;2023-12-20T12:05:47;4.87;99.99
69162;DHT22;56269;51.738;21.652;2023-12-20T12:08:13;4.88;99.99
69162;DHT22;56269;51.738;21.652;2023-12-20T12:10:39;4.87;99.99
69162;DHT22;56269;51.738;21.652;2023-12-20T12:13:06;4.86;99.99
69162;DHT22;56269;51.738;21.652;2023-12-20T12:15:32;4.86;99.99
69162;DHT22;56269;51.738;21.652;2023-12-20T12:17:58;4.86;99.99
69162;DHT22;56269;51.738;21.652;2023-12-20T12:20:25;4.84;99.99
69162;DHT22;56269;51.738;21.652;2023-12-20T12:22:58;4.86;99.99
69162;DHT22;56269;51.738;21.652;2023-12-20T12:25:26;4.84;99.99
69162;DHT22;56269;51.738;21.652;2023-12-20T12:27:52;4.86;99.99
69162;DHT22;56269;51.738;21.652;2023-12-20T12:30:19;4.81;99.99
69162;DHT22;56269;51.738;21.652;2023-12-20T12:32:45;4.84;99.99
69162;DHT22;56269;51.738;21.652;2023-12-20T12:35:11;4.83;99.99
69162;DHT22;56269;51.738;21.652;2023-12-20T12:37:38;4.83;99.99
69162;DHT22;56269;51.738;21.652;2023-12-20T12:40:15;4.86;99.99
69162;DHT22;56269;51.738;21.652;2023-12-20T12:42:44;4.83;99.99
69162;DHT22;56269;51.738;21.652;2023-12-20T12:45:11;4.83;99.99
69162;DHT22;56269;51.738;21.652;2023-12-20T12:47:47;4.81;99.99
69162;DHT22;56269;51.738;21.652;2023-12-20T12:50:13;4.83;99.99
69162;DHT22;56269;51.738;21.652;2023-12-20T12:52:39;4.83;99.99
69162;DHT22;56269;51.738;21.652;2023-12-20T12:55:06;4.84;99.99
69162;DHT22;56269;51.738;21.652;2023-12-20T12:57:33;4.80;99.99
69162;DHT22;56269;51.738;21.652;2023-12-20T12:59:59;4.83;99.99
69162;DHT22;56269;51.738;21.652;2023-12-20T13:02:25;4.84;99.99
69162;DHT22;56269;51.738;21.652;2023-12-20T13:04:52;4.86;99.99
69162;DHT22;56269;51.738;21.652;2023-12-20T13:07:18;4.83;99.99
69162;DHT22;56269;51.738;21.652;2023-12-20T13:09:44;4.81;99.99
69162;DHT22;56269;51.738;21.652;2023-12-20T13:12:10;4.79;99.99
69162;DHT22;56269;51.738;21.652;2023-12-20T13:14:36;4.77;99.99
69162;DHT22;56269;51.738;21.652;2023-12-20T13:17:03;4.83;99.99
69162;DHT22;56269;51.738;21.652;2023-12-20T13:19:29;4.77;99.99
69162;DHT22;56269;51.738;21.652;2023-12-20T13:21:56;4.76;99.99
69162;DHT22;56269;51.738;21.652;2023-12-20T13:24:24;4.76;99.99
69162;DHT22;56269;51.738;21.652;2023-12-20T13:26:50;4.72;99.99
69162;DHT22;56269;51.738;21.652;2023-12-20T13:29:17;4.70;99.81
69162;DHT22;56269;51.738;21.652;2023-12-20T13:31:43;4.65;99.99
69162;DHT22;56269;51.738;21.652;2023-12-20T13:34:09;4.63;99.47
69162;DHT22;56269;51.738;21.652;2023-12-20T13:36:35;4.60;99.32
69162;DHT22;56269;51.738;21.652;2023-12-20T13:39:03;4.60;99.18
69162;DHT22;56269;51.738;21.652;2023-12-20T13:41:31;4.60;98.68
69162;DHT22;56269;51.738;21.652;2023-12-20T13:43:57;4.57;98.27
69162;DHT22;56269;51.738;21.652;2023-12-20T13:46:23;4.57;98.31
69162;DHT22;56269;51.738;21.652;2023-12-20T13:48:50;4.53;98.76
69162;DHT22;56269;51.738;21.652;2023-12-20T13:51:16;4.49;98.51
69162;DHT22;56269;51.738;21.652;2023-12-20T13:53:42;4.49;98.66
69162;DHT22;56269;51.738;21.652;2023-12-20T13:56:08;4.48;98.68
69162;DHT22;56269;51.738;21.652;2023-12-20T13:58:34;4.49;98.59
69162;DHT22;56269;51.738;21.652;2023-12-20T14:01:00;4.46;98.70
69162;DHT22;56269;51.738;21.652;2023-12-20T14:03:27;4.42;98.93
69162;DHT22;56269;51.738;21.652;2023-12-20T14:05:53;4.35;99.19
69162;DHT22;56269;51.738;21.652;2023-12-20T14:08:19;4.35;99.27
69162;DHT22;56269;51.738;21.652;2023-12-20T14:10:45;4.35;99.21
69162;DHT22;56269;51.738;21.652;2023-12-20T14:13:12;4.32;99.43
69162;DHT22;56269;51.738;21.652;2023-12-20T14:15:38;4.33;99.34
69162;DHT22;56269;51.738;21.652;2023-12-20T14:18:05;4.29;99.12
69162;DHT22;56269;51.738;21.652;2023-12-20T14:20:34;4.25;99.43
69162;DHT22;56269;51.738;21.652;2023-12-20T14:23:04;4.23;99.47
69162;DHT22;56269;51.738;21.652;2023-12-20T14:25:30;4.21;99.78
69162;DHT22;56269;51.738;21.652;2023-12-20T14:27:57;4.16;99.97
69162;DHT22;56269;51.738;21.652;2023-12-20T14:30:23;4.12;99.99
69162;DHT22;56269;51.738;21.652;2023-12-20T14:32:50;4.11;99.99
69162;DHT22;56269;51.738;21.652;2023-12-20T14:35:16;4.11;99.99
69162;DHT22;56269;51.738;21.652;2023-12-20T14:37:42;4.15;99.90
69162;DHT22;56269;51.738;21.652;2023-12-20T14:40:10;4.14;99.96
69162;DHT22;56269;51.738;21.652;2023-12-20T14:42:37;4.05;99.94
69162;DHT22;56269;51.738;21.652;2023-12-20T14:45:04;4.06;99.97
69162;DHT22;56269;51.738;21.652;2023-12-20T14:47:30;4.08;99.99
69162;DHT22;56269;51.738;21.652;2023-12-20T14:49:56;4.12;99.94
69162;DHT22;56269;51.738;21.652;2023-12-20T14:52:23;4.16;99.91
69162;DHT22;56269;51.738;21.652;2023-12-20T14:54:49;4.15;99.89
69162;DHT22;56269;51.738;21.652;2023-12-20T14:57:15;4.14;99.99
69162;DHT22;56269;51.738;21.652;2023-12-20T14:59:41;4.12;99.95
69162;DHT22;56269;51.738;21.652;2023-12-20T15:02:09;4.12;99.99
69162;DHT22;56269;51.738;21.652;2023-12-20T15:04:35;4.14;99.99
69162;DHT22;56269;51.738;21.652;2023-12-20T15:07:02;4.16;99.99
69162;DHT22;56269;51.738;21.652;2023-12-20T15:09:30;4.15;99.81
69162;DHT22;56269;51.738;21.652;2023-12-20T15:11:56;4.18;99.98
69162;DHT22;56269;51.738;21.652;2023-12-20T15:14:22;4.21;99.87
69162;DHT22;56269;51.738;21.652;2023-12-20T15:16:49;4.19;99.76
69162;DHT22;56269;51.738;21.652;2023-12-20T15:19:15;4.16;99.73
69162;DHT22;56269;51.738;21.652;2023-12-20T15:21:42;4.14;99.95
69162;DHT22;56269;51.738;21.652;2023-12-20T15:24:09;4.15;99.60
69162;DHT22;56269;51.738;21.652;2023-12-20T15:26:43;4.21;99.29
69162;DHT22;56269;51.738;21.652;2023-12-20T15:29:10;4.23;99.10
69162;DHT22;56269;51.738;21.652;2023-12-20T15:31:45;4.22;99.34